3NP weather

Napoleon Airport
Napoleon, Michigan, United States

Public forecast

Using degrees Fahrenheit for public forecast. Weather courtesy of forecast.io.

Closest aviation weather report (METAR) to Napoleon Airport

Closest report is Jackson County Reynolds Field, 10.4 nm (19.2 km) WNW. Retrieved 2020/05/30 05:56 UTC (20 minutes ago):

KJXN 300556Z AUTO 25004KT 10SM CLR 11/09 A3004 RMK AO2 SLP171 T01060089 10200 20106 51005

Closest aviation forecast (TAF) to Napoleon Airport

Closest forecast is Jackson County Reynolds Field, 10.4 nm (19.2 km) WNW. Retrieved 2020/05/30 06:27 UTC (0 seconds ago):

TAF KJXN 300525Z 3006/3106 31006KT P6SM SCT060 FM301500 31011KT P6SM VCSH BKN035 FM310000 33008KT P6SM SKC